Time;durP1;ratioP1;P1;durP2;ratioP2;P2;SDS_P1;SDS_P2;PMS_P1;PMS_P2;Temp;Humidity;BMP_temperature;BMP_pressure;BME280_temperature;BME280_humidity;BME280_pressure;Samples;Min_cycle;Max_cycle;Signal;HPM_P1;HPM_P2
2022/03/16 00:01:46;;;;;;;30.90;22.05;;;;;;;9.89;55.93;102517.28;5184351;28;20415;-49
2022/03/16 00:04:18;;;;;;;36.47;23.38;;;;;;;9.87;55.90;102513.91;5183977;28;20427;-48
2022/03/16 00:06:51;;;;;;;32.78;23.95;;;;;;;9.83;55.91;102512.44;5189357;28;20428;-50
2022/03/16 00:09:23;;;;;;;35.35;24.85;;;;;;;9.80;55.98;102512.63;5185644;28;20437;-47
2022/03/16 00:11:56;;;;;;;37.85;24.60;;;;;;;9.78;56.10;102514.53;5185867;28;20473;-47
2022/03/16 00:14:28;;;;;;;31.95;24.33;;;;;;;9.66;56.27;102514.41;5184788;28;20423;-53
2022/03/16 00:17:02;;;;;;;36.42;25.67;;;;;;;9.70;56.30;102529.09;5183420;28;20513;-50
2022/03/16 00:19:36;;;;;;;36.93;23.67;;;;;;;9.63;56.29;102526.94;5185704;28;20611;-48
2022/03/16 00:22:08;;;;;;;34.67;25.95;;;;;;;9.62;56.35;102522.63;5183071;28;20509;-46
2022/03/16 00:24:41;;;;;;;32.67;25.15;;;;;;;9.57;56.38;102528.22;5186051;28;20510;-51
2022/03/16 00:27:13;;;;;;;34.67;25.23;;;;;;;9.53;56.33;102513.53;5183787;28;20494;-53
2022/03/16 00:29:46;;;;;;;38.78;26.70;;;;;;;9.61;56.55;102524.44;5184529;28;20507;-47
2022/03/16 00:32:20;;;;;;;39.72;26.42;;;;;;;9.57;56.56;102525.59;5161456;28;20496;-50
2022/03/16 00:34:52;;;;;;;39.07;28.23;;;;;;;9.51;56.68;102512.81;5185988;28;20434;-49
2022/03/16 00:37:24;;;;;;;36.08;28.77;;;;;;;9.48;56.95;102513.00;5182944;28;20474;-51
2022/03/16 00:39:57;;;;;;;43.33;31.25;;;;;;;9.47;56.77;102509.50;5184436;28;20425;-58
2022/03/16 00:42:29;;;;;;;40.08;30.65;;;;;;;9.48;56.84;102513.00;5183882;28;20862;-49
2022/03/16 00:45:02;;;;;;;42.15;29.83;;;;;;;9.51;57.01;102528.63;5185653;28;20974;-50
2022/03/16 00:47:36;;;;;;;40.55;30.85;;;;;;;9.47;57.06;102527.13;5186022;28;20866;-51
2022/03/16 00:50:10;;;;;;;43.80;30.20;;;;;;;9.43;57.07;102533.56;5186444;28;20434;-46
2022/03/16 00:52:43;;;;;;;43.83;30.20;;;;;;;9.42;57.09;102529.22;5186884;28;20532;-49
2022/03/16 00:55:15;;;;;;;35.85;27.98;;;;;;;9.41;57.17;102524.88;5182228;28;20488;-49
2022/03/16 00:57:48;;;;;;;42.17;30.20;;;;;;;9.38;57.08;102533.00;5174618;28;20413;-49
2022/03/16 01:00:20;;;;;;;38.03;28.67;;;;;;;9.36;57.40;102529.63;5163196;28;20521;-51
2022/03/16 01:02:55;;;;;;;47.03;30.92;;;;;;;9.34;57.31;102527.09;5165738;28;20424;-51
2022/03/16 01:05:27;;;;;;;47.58;31.38;;;;;;;9.29;57.26;102523.06;5162495;28;20428;-46
2022/03/16 01:08:00;;;;;;;44.92;32.28;;;;;;;9.28;57.42;102526.63;5165297;28;20436;-50
2022/03/16 01:10:32;;;;;;;42.40;29.73;;;;;;;9.28;57.56;102521.38;5158527;28;20591;-50
2022/03/16 01:13:05;;;;;;;48.40;31.95;;;;;;;9.26;57.56;102520.59;5163365;28;20830;-48
2022/03/16 01:15:37;;;;;;;42.90;31.75;;;;;;;9.22;57.54;102512.91;5164511;28;20782;-49
2022/03/16 01:18:11;;;;;;;46.67;30.55;;;;;;;9.21;57.63;102521.75;5163006;28;20428;-50
2022/03/16 01:20:43;;;;;;;46.42;31.58;;;;;;;9.18;57.82;102524.59;5167028;28;20564;-50
2022/03/16 01:23:18;;;;;;;42.75;30.40;;;;;;;9.18;57.59;102516.69;5164989;28;20439;-50
2022/03/16 01:25:50;;;;;;;45.15;31.70;;;;;;;9.10;57.68;102526.88;5165351;28;20488;-51
2022/03/16 01:28:23;;;;;;;46.33;31.52;;;;;;;9.09;57.78;102522.56;5163921;28;20456;-44
2022/03/16 01:30:57;;;;;;;46.72;31.50;;;;;;;9.14;57.76;102517.84;5159952;28;20527;-46
2022/03/16 01:33:31;;;;;;;50.58;32.55;;;;;;;9.13;57.95;102512.66;5158503;28;20496;-47
2022/03/16 01:36:04;;;;;;;53.00;33.28;;;;;;;9.08;57.71;102510.34;5162948;28;20432;-47
2022/03/16 01:38:37;;;;;;;48.38;33.55;;;;;;;8.97;57.71;102502.25;5162966;28;20428;-53
2022/03/16 01:41:09;;;;;;;50.22;33.97;;;;;;;9.12;57.83;102521.53;5164266;28;20840;-52
2022/03/16 01:43:42;;;;;;;53.10;35.17;;;;;;;9.03;58.03;102512.41;5161392;28;21055;-48
2022/03/16 01:46:16;;;;;;;50.85;33.20;;;;;;;9.08;58.02;102526.16;5163948;28;20512;-49
2022/03/16 01:48:52;;;;;;;45.97;31.40;;;;;;;9.08;58.12;102531.41;5162809;28;20416;-52
2022/03/16 01:51:24;;;;;;;50.97;31.83;;;;;;;9.03;58.06;102517.69;5162767;28;20865;-51
2022/03/16 01:53:57;;;;;;;50.13;32.35;;;;;;;8.99;58.11;102521.47;5165562;28;20500;-47
2022/03/16 01:56:30;;;;;;;49.00;31.17;;;;;;;9.03;58.05;102527.38;5165614;28;20416;-54
2022/03/16 01:59:02;;;;;;;51.57;31.03;;;;;;;9.02;58.21;102526.53;5166220;28;20552;-51
2022/03/16 02:01:35;;;;;;;45.80;30.35;;;;;;;8.85;58.14;102492.50;5166677;28;20440;-48
2022/03/16 02:04:08;;;;;;;50.60;31.33;;;;;;;8.98;58.31;102520.63;5167913;28;21080;-49
2022/03/16 02:06:41;;;;;;;53.50;31.42;;;;;;;8.97;58.22;102518.06;5167965;28;20499;-50
2022/03/16 02:09:14;;;;;;;49.58;33.05;;;;;;;8.95;58.24;102539.28;5165347;28;20402;-51
2022/03/16 02:11:46;;;;;;;53.20;34.67;;;;;;;8.94;58.29;102519.09;5166479;28;20487;-51
2022/03/16 02:14:19;;;;;;;51.55;33.55;;;;;;;8.91;58.34;102513.19;5167982;28;20413;-52
2022/03/16 02:16:55;;;;;;;51.53;34.67;;;;;;;8.71;58.48;102486.34;5163116;28;20515;-52
2022/03/16 02:19:29;;;;;;;51.67;34.22;;;;;;;8.92;58.36;102522.78;5165257;28;20405;-51
2022/03/16 02:22:04;;;;;;;55.70;34.08;;;;;;;8.53;58.21;102461.16;5155362;28;20436;-48
2022/03/16 02:24:38;;;;;;;52.28;34.70;;;;;;;8.92;58.32;102520.16;5163894;28;20424;-50
2022/03/16 02:27:11;;;;;;;51.35;35.42;;;;;;;8.92;58.50;102518.38;5154424;28;20527;-47
2022/03/16 02:29:43;;;;;;;52.95;35.17;;;;;;;8.91;58.40;102526.38;5152350;28;22069;-51
2022/03/16 02:32:15;;;;;;;54.03;35.40;;;;;;;8.89;58.46;102510.66;5165650;28;20964;-52
2022/03/16 02:34:48;;;;;;;48.30;34.33;;;;;;;8.89;58.54;102513.31;5167885;28;20467;-48
2022/03/16 02:37:20;;;;;;;46.28;32.78;;;;;;;8.86;58.52;102504.75;5168323;28;20552;-49
2022/03/16 02:39:55;;;;;;;49.35;34.92;;;;;;;8.87;58.68;102501.16;5164263;28;20409;-51
2022/03/16 02:42:27;;;;;;;48.78;32.75;;;;;;;8.78;58.64;102490.25;5163825;28;20420;-59
2022/03/16 02:45:00;;;;;;;53.88;33.80;;;;;;;8.85;58.78;102484.59;5154498;28;20412;-51
2022/03/16 02:47:32;;;;;;;53.97;33.45;;;;;;;8.79;58.55;102483.19;5167119;28;20504;-49
2022/03/16 02:50:06;;;;;;;54.92;33.88;;;;;;;8.81;58.61;102486.59;5165175;28;20424;-47
2022/03/16 02:52:38;;;;;;;55.78;34.47;;;;;;;8.84;58.60;102490.81;5166732;28;20405;-50
2022/03/16 02:55:13;;;;;;;46.75;31.75;;;;;;;8.73;58.54;102479.19;5165341;28;20499;-50
2022/03/16 02:57:45;;;;;;;41.20;29.95;;;;;;;8.59;58.49;102459.94;5161051;28;20417;-50
2022/03/16 03:00:19;;;;;;;44.35;29.52;;;;;;;8.59;58.58;102460.78;5162900;28;20495;-49
2022/03/16 03:02:51;;;;;;;42.22;29.67;;;;;;;8.66;58.83;102482.28;5166262;28;20441;-49
2022/03/16 03:05:24;;;;;;;45.58;31.02;;;;;;;8.53;58.87;102480.44;5160003;28;20413;-51
2022/03/16 03:07:56;;;;;;;43.53;31.77;;;;;;;8.51;58.82;102481.47;5167439;28;20751;-56
2022/03/16 03:10:30;;;;;;;46.88;32.53;;;;;;;8.46;58.95;102475.66;5164623;28;20844;-59
2022/03/16 03:13:03;;;;;;;50.03;32.43;;;;;;;8.39;59.07;102484.84;5166819;28;20900;-50
2022/03/16 03:15:36;;;;;;;52.35;35.17;;;;;;;8.31;59.10;102477.41;5163849;28;20429;-50
2022/03/16 03:18:08;;;;;;;54.38;37.80;;;;;;;8.16;59.12;102466.03;5164185;28;20427;-50
2022/03/16 03:20:41;;;;;;;49.00;37.13;;;;;;;8.23;59.04;102479.66;5165562;28;20428;-50
2022/03/16 03:23:14;;;;;;;52.77;38.70;;;;;;;8.16;59.14;102473.94;5165311;28;20414;-49
2022/03/16 03:25:48;;;;;;;57.88;40.63;;;;;;;7.99;59.30;102458.31;5164248;28;20793;-49
2022/03/16 03:28:20;;;;;;;60.60;40.53;;;;;;;8.05;59.32;102492.16;5163695;28;20865;-46
2022/03/16 03:30:53;;;;;;;58.88;41.05;;;;;;;8.02;59.21;102471.28;5165829;28;20432;-53
2022/03/16 03:33:25;;;;;;;63.75;42.88;;;;;;;8.00;59.50;102478.44;5162058;28;20409;-50
2022/03/16 03:35:58;;;;;;;65.75;45.40;;;;;;;7.97;59.40;102486.53;5163425;28;20420;-47
2022/03/16 03:38:30;;;;;;;66.72;44.15;;;;;;;7.93;59.56;102488.50;5164147;28;20433;-47
2022/03/16 03:41:05;;;;;;;77.50;49.47;;;;;;;7.92;59.61;102481.53;5164257;28;20519;-50
2022/03/16 03:43:37;;;;;;;76.20;45.87;;;;;;;7.66;59.60;102458.59;5165739;28;20527;-46
2022/03/16 03:46:10;;;;;;;71.47;48.33;;;;;;;7.79;59.56;102465.63;5162725;28;20412;-49
2022/03/16 03:48:42;;;;;;;71.63;48.55;;;;;;;7.83;59.84;102477.69;5164058;28;20478;-50
2022/03/16 03:51:17;;;;;;;70.90;47.03;;;;;;;7.80;59.93;102482.25;5165652;28;20476;-50
2022/03/16 03:53:49;;;;;;;69.90;47.03;;;;;;;7.78;59.93;102484.16;5165960;28;20535;-50
2022/03/16 03:56:23;;;;;;;75.43;46.85;;;;;;;7.72;60.04;102479.25;5163923;28;20475;-46
2022/03/16 03:58:55;;;;;;;72.53;47.05;;;;;;;7.72;60.06;102485.34;5161019;28;20448;-47
2022/03/16 04:01:28;;;;;;;74.53;49.22;;;;;;;7.68;59.93;102472.47;5165611;28;20913;-54
2022/03/16 04:04:00;;;;;;;77.07;48.50;;;;;;;7.65;60.12;102463.00;5166202;28;21976;-49
2022/03/16 04:06:33;;;;;;;71.68;48.20;;;;;;;7.47;60.19;102433.38;5162994;28;20506;-47
2022/03/16 04:09:06;;;;;;;82.82;49.90;;;;;;;7.69;60.03;102480.28;5166083;28;20455;-52
2022/03/16 04:11:41;;;;;;;73.60;50.15;;;;;;;7.73;60.19;102476.53;5163045;28;20488;-52
2022/03/16 04:14:13;;;;;;;84.87;49.40;;;;;;;7.63;60.21;102452.56;5164899;28;20754;-48
2022/03/16 04:16:46;;;;;;;73.93;46.97;;;;;;;7.67;60.35;102468.16;5165688;28;20412;-48
2022/03/16 04:19:18;;;;;;;78.72;48.63;;;;;;;7.63;60.07;102470.13;5167191;28;20423;-47
2022/03/16 04:21:51;;;;;;;75.93;48.00;;;;;;;7.63;60.46;102462.22;5171560;28;20492;-48
2022/03/16 04:24:23;;;;;;;83.32;50.75;;;;;;;7.60;60.27;102454.53;5163173;28;20425;-48
2022/03/16 04:26:57;;;;;;;79.93;49.20;;;;;;;7.62;60.69;102452.66;5158598;28;20488;-52
2022/03/16 04:29:30;;;;;;;77.85;50.55;;;;;;;7.37;60.76;102419.06;5160770;28;20430;-58
2022/03/16 04:32:02;;;;;;;82.97;50.60;;;;;;;7.51;60.76;102447.19;5162939;28;20419;-52
2022/03/16 04:34:35;;;;;;;80.97;49.13;;;;;;;7.56;60.86;102460.91;5163666;28;20515;-47
2022/03/16 04:37:07;;;;;;;81.70;50.90;;;;;;;7.55;60.65;102451.31;5162190;28;20436;-54
2022/03/16 04:39:40;;;;;;;79.45;50.60;;;;;;;7.33;60.94;102421.03;5164432;28;20542;-48
2022/03/16 04:42:14;;;;;;;79.28;49.50;;;;;;;7.43;60.85;102444.16;5163188;28;20427;-54
2022/03/16 04:44:46;;;;;;;80.88;51.22;;;;;;;7.40;61.01;102437.28;5164954;28;20412;-52
2022/03/16 04:47:19;;;;;;;78.65;51.33;;;;;;;7.41;61.18;102443.41;5165805;28;20433;-51
2022/03/16 04:49:51;;;;;;;77.38;51.53;;;;;;;7.37;61.25;102451.47;5164619;28;20436;-51
2022/03/16 04:52:25;;;;;;;82.30;51.78;;;;;;;7.43;61.19;102454.66;5163873;28;20428;-46
2022/03/16 04:54:58;;;;;;;76.53;48.53;;;;;;;7.43;61.28;102457.28;5164598;28;20761;-49
2022/03/16 04:57:32;;;;;;;78.35;52.22;;;;;;;7.43;61.40;102462.56;5163726;28;20469;-50
2022/03/16 05:00:06;;;;;;;77.90;50.85;;;;;;;7.41;61.50;102459.19;5163495;28;20499;-51
2022/03/16 05:02:39;;;;;;;73.75;51.08;;;;;;;7.39;61.55;102460.09;5163580;28;20884;-50
2022/03/16 05:05:14;;;;;;;77.75;51.50;;;;;;;7.20;61.57;102413.97;5164827;28;20412;-48
2022/03/16 05:07:47;;;;;;;74.20;49.70;;;;;;;7.38;61.67;102455.78;5164607;28;20551;-47
2022/03/16 05:10:19;;;;;;;80.63;51.17;;;;;;;7.38;61.78;102461.03;5162793;28;20428;-47
2022/03/16 05:12:53;;;;;;;72.30;47.97;;;;;;;7.27;61.78;102436.31;5152714;28;20568;-48
2022/03/16 05:15:25;;;;;;;75.07;49.00;;;;;;;7.38;61.70;102458.41;5163496;28;20891;-49
2022/03/16 05:17:58;;;;;;;77.30;49.08;;;;;;;7.19;61.77;102423.63;5165956;28;20511;-51
2022/03/16 05:20:30;;;;;;;67.28;44.97;;;;;;;7.35;62.01;102445.44;5166297;28;20912;-48
2022/03/16 05:23:03;;;;;;;66.43;43.40;;;;;;;7.41;62.14;102453.94;5165930;28;20452;-50
2022/03/16 05:25:36;;;;;;;60.88;42.60;;;;;;;7.37;61.87;102454.09;5155825;28;20927;-54
2022/03/16 05:28:10;;;;;;;57.17;41.10;;;;;;;7.41;61.99;102446.88;5166046;28;20464;-47
2022/03/16 05:30:42;;;;;;;58.13;39.33;;;;;;;7.31;62.02;102438.69;5169276;28;20483;-50
2022/03/16 05:33:14;;;;;;;53.08;37.00;;;;;;;7.46;62.35;102454.47;5169574;28;20884;-48
2022/03/16 05:35:47;;;;;;;51.35;36.33;;;;;;;7.49;62.12;102455.16;5168847;28;20512;-58
2022/03/16 05:38:20;;;;;;;49.40;34.72;;;;;;;7.47;62.02;102454.41;5168557;28;20842;-50
2022/03/16 05:40:52;;;;;;;44.28;33.13;;;;;;;7.48;62.47;102461.34;5168991;28;20424;-55
2022/03/16 05:43:26;;;;;;;49.97;36.10;;;;;;;7.50;62.23;102462.13;5166671;28;20524;-51
2022/03/16 05:45:58;;;;;;;49.72;34.05;;;;;;;7.51;62.58;102462.97;5188744;28;20415;-49
2022/03/16 05:48:31;;;;;;;44.13;32.83;;;;;;;7.52;62.32;102462.00;5155246;28;20436;-47
2022/03/16 05:51:03;;;;;;;44.90;32.65;;;;;;;7.55;62.39;102467.09;5168122;28;20514;-50
2022/03/16 05:53:36;;;;;;;43.78;31.65;;;;;;;7.53;62.48;102476.88;5170661;28;20448;-50
2022/03/16 05:56:09;;;;;;;44.78;32.35;;;;;;;7.58;62.33;102466.91;5171672;28;20464;-47
2022/03/16 05:58:42;;;;;;;41.00;31.48;;;;;;;7.60;62.33;102467.69;5184018;28;20937;-52
2022/03/16 06:01:15;;;;;;;40.42;29.40;;;;;;;7.59;62.59;102469.47;5187299;28;20443;-51
2022/03/16 06:03:48;;;;;;;47.28;30.23;;;;;;;7.59;62.52;102466.00;5189266;28;20461;-49
2022/03/16 06:06:20;;;;;;;41.17;29.43;;;;;;;7.46;62.28;102447.44;5189844;28;20419;-49
2022/03/16 06:08:53;;;;;;;40.70;27.67;;;;;;;7.70;62.32;102476.69;5189992;28;20407;-57
2022/03/16 06:11:26;;;;;;;38.50;28.30;;;;;;;7.68;62.58;102470.72;5188335;28;20423;-48
2022/03/16 06:14:00;;;;;;;38.73;27.80;;;;;;;7.73;62.62;102476.53;5189662;28;20509;-50
2022/03/16 06:16:32;;;;;;;37.30;25.92;;;;;;;7.78;62.53;102487.63;5188979;28;20895;-50
2022/03/16 06:19:05;;;;;;;35.28;27.80;;;;;;;7.81;62.62;102484.81;5190209;28;20422;-48
2022/03/16 06:21:37;;;;;;;35.58;25.85;;;;;;;7.74;62.36;102470.34;5186624;28;20514;-51
2022/03/16 06:24:10;;;;;;;37.20;25.58;;;;;;;7.80;62.65;102474.38;5189615;28;20450;-47
2022/03/16 06:26:43;;;;;;;33.73;25.13;;;;;;;7.75;62.40;102460.66;5189407;28;20576;-50
2022/03/16 06:29:17;;;;;;;36.10;25.17;;;;;;;7.91;62.33;102479.00;5184774;28;20418;-45
2022/03/16 06:31:49;;;;;;;35.25;26.20;;;;;;;7.94;62.69;102478.81;5187108;28;20468;-47
2022/03/16 06:34:22;;;;;;;34.40;25.03;;;;;;;7.99;62.39;102505.69;5185839;28;20411;-48
2022/03/16 06:36:54;;;;;;;32.45;25.17;;;;;;;7.82;62.24;102475.97;5182298;28;20416;-49
2022/03/16 06:39:27;;;;;;;35.20;24.38;;;;;;;8.03;62.49;102484.38;5187086;28;20407;-50
2022/03/16 06:41:59;;;;;;;35.05;24.88;;;;;;;8.07;62.43;102495.56;5186518;28;20419;-56
2022/03/16 06:44:33;;;;;;;33.27;24.43;;;;;;;8.04;62.31;102474.69;5186732;28;20565;-55
2022/03/16 06:47:06;;;;;;;37.53;23.45;;;;;;;8.15;62.15;102482.78;5185309;28;20510;-55
2022/03/16 06:49:39;;;;;;;32.70;25.00;;;;;;;8.12;62.25;102472.44;5182818;28;20454;-56
2022/03/16 06:52:11;;;;;;;29.15;22.05;;;;;;;8.26;62.27;102488.22;5188861;28;20407;-55
2022/03/16 06:54:43;;;;;;;31.38;22.48;;;;;;;8.21;62.19;102465.78;5185457;28;20480;-53
2022/03/16 06:57:16;;;;;;;32.95;22.45;;;;;;;8.45;62.20;102489.75;5186523;28;20950;-56
2022/03/16 06:59:50;;;;;;;30.17;22.23;;;;;;;8.55;62.17;102485.63;5184114;28;20434;-54
2022/03/16 07:02:23;;;;;;;30.63;21.40;;;;;;;8.67;61.97;102490.13;5177101;28;20427;-57
2022/03/16 07:04:55;;;;;;;29.48;21.20;;;;;;;8.81;62.03;102496.28;5172469;28;20790;-48
2022/03/16 07:07:28;;;;;;;31.52;21.98;;;;;;;9.03;61.66;102499.22;5185401;28;20494;-54
2022/03/16 07:10:00;;;;;;;31.83;22.30;;;;;;;9.33;61.18;102471.81;5180602;28;20941;-56
2022/03/16 07:12:33;;;;;;;31.13;21.77;;;;;;;10.08;60.70;102483.41;5185727;28;20490;-53
2022/03/16 07:15:09;;;;;;;28.15;20.15;;;;;;;11.09;60.03;102472.72;5184406;28;20435;-56
2022/03/16 07:17:41;;;;;;;28.13;18.98;;;;;;;12.14;58.77;102473.59;5179452;28;20419;-54
2022/03/16 07:20:14;;;;;;;24.77;16.58;;;;;;;12.37;58.48;102442.66;5189546;28;20413;-53
2022/03/16 07:23:02;;;;;;;29.08;20.60;;;;;;;13.24;57.83;102480.63;5200179;28;20591;-54
2022/03/16 07:25:35;;;;;;;22.00;15.77;;;;;;;14.12;56.67;102463.50;5183368;28;20415;-53
2022/03/16 07:28:08;;;;;;;28.60;17.50;;;;;;;14.72;55.91;102466.22;5183684;28;20508;-56
2022/03/16 07:30:43;;;;;;;25.20;18.15;;;;;;;15.45;54.84;102453.31;5184668;28;20427;-51
2022/03/16 07:33:18;;;;;;;20.73;15.88;;;;;;;16.21;53.71;102455.13;5180393;28;20430;-58
2022/03/16 07:35:51;;;;;;;24.55;16.88;;;;;;;16.55;53.10;102463.34;5180585;28;20475;-50
2022/03/16 07:38:23;;;;;;;23.35;16.35;;;;;;;16.94;52.77;102453.31;5181774;28;20422;-56
2022/03/16 07:40:56;;;;;;;23.35;16.15;;;;;;;17.49;51.43;102463.75;5173079;28;20514;-58
2022/03/16 07:43:29;;;;;;;22.17;16.48;;;;;;;17.55;51.18;102429.41;5171662;28;20651;-53
2022/03/16 07:46:03;;;;;;;19.50;14.97;;;;;;;17.76;50.53;102437.91;5176206;28;20432;-55
2022/03/16 07:48:36;;;;;;;21.20;15.30;;;;;;;18.28;49.75;102437.84;5180008;28;20423;-53
2022/03/16 07:51:09;;;;;;;26.25;16.60;;;;;;;18.70;48.97;102431.59;5176957;28;20422;-53
2022/03/16 07:53:41;;;;;;;25.10;16.33;;;;;;;19.04;48.27;102427.97;5181428;28;20847;-53
2022/03/16 07:56:14;;;;;;;21.70;16.13;;;;;;;19.08;47.81;102429.34;5182688;28;20450;-57
2022/03/16 07:58:46;;;;;;;22.02;15.68;;;;;;;19.30;47.44;102422.47;5189345;28;20425;-54
2022/03/16 08:01:20;;;;;;;20.63;13.88;;;;;;;19.29;47.00;102413.59;5189283;28;20411;-54
2022/03/16 08:03:53;;;;;;;21.65;14.32;;;;;;;19.16;46.72;102399.88;5181153;28;20466;-54
2022/03/16 08:06:25;;;;;;;19.20;14.48;;;;;;;18.92;46.52;102407.91;5179282;28;20415;-55
2022/03/16 08:08:59;;;;;;;19.55;14.55;;;;;;;18.94;46.48;102425.47;5180885;28;20466;-55
2022/03/16 08:11:32;;;;;;;20.27;12.97;;;;;;;18.79;46.14;102425.28;5177914;28;20430;-55
2022/03/16 08:14:04;;;;;;;17.75;13.30;;;;;;;18.41;46.30;102430.19;5171955;28;20431;-57
2022/03/16 08:16:39;;;;;;;21.90;13.80;;;;;;;18.21;46.25;102428.81;5180500;28;20419;-52
2022/03/16 08:19:13;;;;;;;19.08;13.32;;;;;;;18.12;45.97;102411.06;5178742;28;20435;-59
2022/03/16 08:21:45;;;;;;;19.40;13.15;;;;;;;18.05;45.96;102410.00;5178852;28;20420;-53
2022/03/16 08:24:18;;;;;;;15.93;11.40;;;;;;;17.68;45.79;102371.03;5177228;28;20423;-54
2022/03/16 08:26:50;;;;;;;18.35;12.82;;;;;;;17.46;46.20;102399.97;5176019;28;20900;-56
2022/03/16 08:29:23;;;;;;;23.00;13.02;;;;;;;16.99;46.43;102394.94;5175378;28;20430;-54
2022/03/16 08:31:57;;;;;;;16.87;12.53;;;;;;;16.68;46.57;102404.31;5176807;28;20981;-52
2022/03/16 08:34:30;;;;;;;20.55;13.23;;;;;;;16.40;46.82;102420.34;5180188;28;20530;-55
2022/03/16 08:37:02;;;;;;;20.58;13.18;;;;;;;15.93;47.10;102409.78;5177075;28;20423;-54
2022/03/16 08:39:35;;;;;;;19.00;12.80;;;;;;;15.63;47.44;102398.34;5179088;28;20428;-53
2022/03/16 08:42:09;;;;;;;18.05;12.70;;;;;;;15.77;47.12;102420.22;5179126;28;20940;-53
2022/03/16 08:44:43;;;;;;;19.55;14.27;;;;;;;15.96;46.79;102414.00;5176092;28;20791;-57
2022/03/16 08:47:19;;;;;;;21.45;13.43;;;;;;;15.80;46.62;102409.28;5174969;28;20862;-55
2022/03/16 08:49:55;;;;;;;17.67;13.35;;;;;;;15.58;46.84;102411.28;5180396;28;20425;-54
2022/03/16 08:52:27;;;;;;;18.80;12.93;;;;;;;15.30;47.05;102390.84;5176877;28;20922;-58
2022/03/16 08:55:00;;;;;;;15.27;11.18;;;;;;;15.16;47.38;102406.28;5161849;28;20428;-57
2022/03/16 08:57:33;;;;;;;18.50;13.25;;;;;;;14.71;47.60;102387.38;5180271;28;20438;-54
2022/03/16 09:00:07;;;;;;;21.30;13.13;;;;;;;14.42;47.87;102396.13;5152041;28;20435;-56
2022/03/16 09:02:42;;;;;;;22.42;13.52;;;;;;;14.24;48.07;102401.28;5180463;28;20431;-58
2022/03/16 09:05:15;;;;;;;22.23;13.88;;;;;;;14.26;48.10;102407.28;5178011;28;20437;-55
2022/03/16 09:07:47;;;;;;;17.88;12.63;;;;;;;14.41;48.04;102420.22;5182133;28;20425;-55
2022/03/16 09:10:20;;;;;;;19.50;14.02;;;;;;;14.43;47.88;102416.44;5184348;28;20522;-54
2022/03/16 09:12:52;;;;;;;18.00;13.35;;;;;;;14.46;47.86;102417.97;5183264;28;20428;-61
2022/03/16 09:15:25;;;;;;;20.25;12.85;;;;;;;14.33;47.87;102393.47;5178156;28;20561;-52
2022/03/16 09:17:58;;;;;;;18.45;13.25;;;;;;;14.22;48.01;102384.63;5186242;28;20419;-56
2022/03/16 09:20:31;;;;;;;18.98;12.05;;;;;;;14.53;47.93;102404.03;5185415;28;20442;-57
2022/03/16 09:23:03;;;;;;;22.23;12.38;;;;;;;14.82;47.65;102391.75;5187048;28;20851;-55
2022/03/16 09:25:36;;;;;;;18.02;10.90;;;;;;;15.09;47.54;102378.59;5186581;28;20541;-52
2022/03/16 09:28:09;;;;;;;16.33;9.97;;;;;;;15.13;47.19;102379.97;5184079;28;20435;-56
2022/03/16 09:30:53;;;;;;;18.33;11.35;;;;;;;15.37;47.39;102397.31;5173716;28;20434;-55
2022/03/16 09:33:30;;;;;;;15.20;10.27;;;;;;;15.30;47.56;102372.22;5176953;28;20525;-58
2022/03/16 09:36:08;;;;;;;15.35;10.75;;;;;;;15.40;47.60;102386.38;5186804;28;20423;-57
2022/03/16 09:38:40;;;;;;;15.20;10.40;;;;;;;15.16;47.73;102358.38;5178544;28;20491;-56
2022/03/16 09:41:13;;;;;;;17.27;11.27;;;;;;;15.14;47.85;102381.66;5171945;28;20475;-56
2022/03/16 09:43:46;;;;;;;15.90;10.60;;;;;;;14.85;47.83;102349.75;5181607;28;20855;-56
2022/03/16 09:46:26;;;;;;;16.45;10.82;;;;;;;14.91;47.87;102377.63;5182269;28;20463;-55
2022/03/16 09:49:00;;;;;;;14.23;10.30;;;;;;;14.69;48.16;102389.38;5178127;28;20574;-56
2022/03/16 09:51:36;;;;;;;17.80;11.07;;;;;;;14.49;48.15;102360.09;5175124;28;20505;-55
2022/03/16 09:54:08;;;;;;;15.65;10.80;;;;;;;14.46;48.05;102360.34;5176086;28;21056;-58
2022/03/16 09:56:43;;;;;;;16.25;11.43;;;;;;;14.66;47.98;102381.66;5176409;28;21530;-53
2022/03/16 09:59:17;;;;;;;16.25;11.60;;;;;;;14.68;47.79;102385.88;5178507;28;20407;-57
2022/03/16 10:01:57;;;;;;;15.88;11.05;;;;;;;14.62;47.74;102375.78;5173559;28;20435;-57
2022/03/16 10:04:33;;;;;;;15.90;11.32;;;;;;;14.58;47.61;102374.38;5173912;28;20926;-56
2022/03/16 10:07:06;;;;;;;16.98;11.23;;;;;;;14.66;47.48;102387.81;5181558;28;20501;-57
2022/03/16 10:15:21;;;;;;;16.73;10.13;;;;;;;14.64;47.15;102347.22;5165792;28;20977;-58
2022/03/16 10:18:01;;;;;;;14.48;10.00;;;;;;;14.67;46.98;102360.25;5182867;28;20422;-56
2022/03/16 10:20:37;;;;;;;13.02;9.20;;;;;;;14.67;46.78;102344.28;5175379;28;20427;-57
2022/03/16 10:23:14;;;;;;;12.57;9.35;;;;;;;14.74;46.65;102352.53;5181233;28;20422;-54
2022/03/16 10:26:32;;;;;;;13.27;9.43;;;;;;;14.75;46.59;102339.13;5176019;28;20407;-57
2022/03/16 10:29:05;;;;;;;14.15;9.32;;;;;;;15.03;46.31;102347.22;5180196;28;20533;-58
2022/03/16 10:31:38;;;;;;;11.85;8.27;;;;;;;15.11;46.06;102336.72;5180018;28;20565;-57
2022/03/16 10:34:10;;;;;;;12.85;8.38;;;;;;;15.27;45.91;102340.56;5159898;28;20475;-56
2022/03/16 10:36:44;;;;;;;12.00;8.25;;;;;;;15.30;45.63;102333.16;5172821;28;20430;-57
2022/03/16 10:39:17;;;;;;;10.30;7.05;;;;;;;15.39;45.67;102326.97;5180523;28;20429;-60
2022/03/16 10:47:52;;;;;;;10.68;7.88;;;;;;;15.37;45.38;102328.09;5121056;28;20787;-59
2022/03/16 10:50:25;;;;;;;10.85;7.60;;;;;;;15.50;45.22;102330.44;5181742;28;20447;-55
2022/03/16 10:53:01;;;;;;;8.60;7.35;;;;;;;15.58;44.92;102333.22;5181352;28;20423;-58
2022/03/16 10:55:34;;;;;;;9.77;7.53;;;;;;;15.65;44.71;102345.78;5178825;28;20422;-55
2022/03/16 10:58:08;;;;;;;9.50;7.00;;;;;;;15.70;44.59;102344.53;5170143;28;20466;-59
2022/03/16 11:00:42;;;;;;;14.00;8.27;;;;;;;15.50;44.71;102307.31;5169140;28;20524;-58
2022/03/16 11:03:16;;;;;;;9.32;7.13;;;;;;;15.57;44.58;102328.84;5180893;28;22064;-57
2022/03/16 11:05:49;;;;;;;11.52;7.95;;;;;;;16.04;44.25;102326.13;5174047;28;20911;-56
2022/03/16 11:08:25;;;;;;;12.43;8.30;;;;;;;16.16;44.03;102324.09;5182483;28;20434;-55
2022/03/16 11:10:57;;;;;;;11.35;8.15;;;;;;;16.17;44.00;102315.13;5174433;28;20423;-58
2022/03/16 11:13:29;;;;;;;11.27;7.63;;;;;;;16.25;43.83;102323.19;5182996;28;20426;-55
2022/03/16 11:16:02;;;;;;;9.50;7.53;;;;;;;16.24;43.78;102327.69;5184067;28;20504;-56
2022/03/16 11:18:35;;;;;;;11.63;7.50;;;;;;;16.19;43.68;102327.31;5158307;28;20479;-58
2022/03/16 11:21:12;;;;;;;9.95;7.93;;;;;;;16.14;43.79;102329.59;5166400;28;20431;-58
2022/03/16 11:26:54;;;;;;;9.63;8.27;;;;;;;16.21;43.79;102321.84;5172503;28;20514;-57
2022/03/16 11:29:39;;;;;;;10.50;7.55;;;;;;;16.14;43.65;102287.78;5177828;28;20699;-59
2022/03/16 11:32:15;;;;;;;11.75;7.38;;;;;;;16.54;43.38;102318.50;5181977;28;20793;-55
2022/03/16 11:34:58;;;;;;;10.60;8.27;;;;;;;16.70;43.07;102306.31;5183212;28;20506;-58
2022/03/16 11:37:35;;;;;;;10.73;8.13;;;;;;;16.71;43.10;102292.78;5140147;28;20447;-55
2022/03/16 11:40:13;;;;;;;11.80;8.95;;;;;;;16.74;42.91;102313.00;5175718;28;20427;-59
2022/03/16 11:43:18;;;;;;;14.18;9.85;;;;;;;16.68;42.92;102308.28;5173439;28;20462;-59
2022/03/16 11:45:54;;;;;;;13.07;8.57;;;;;;;16.56;42.90;102313.84;5177051;28;20411;-55
2022/03/16 11:48:50;;;;;;;10.27;8.75;;;;;;;16.48;42.88;102305.78;5177343;28;20414;-59
2022/03/16 11:51:29;;;;;;;10.40;7.87;;;;;;;16.48;42.87;102296.94;5179273;28;20521;-60
2022/03/16 11:54:12;;;;;;;10.07;7.45;;;;;;;16.50;42.84;102295.78;5176504;28;20469;-56
2022/03/16 11:56:56;;;;;;;10.15;8.27;;;;;;;16.54;42.72;102297.16;5149547;28;20436;-56
2022/03/16 11:59:35;;;;;;;11.27;8.48;;;;;;;16.54;42.70;102286.50;5155622;28;20405;-56